Identifiez vous afin de poster une observation
 • Tableaux GEFS   

Tableaux GEFS de Températures 500hPa (°C)

Run GEFS du 24/03/2019 06Z - Choix du run : 00 - 06 - 12 - 18 Sauver tableau : Conserver cette image

Paramètres : [ Temp. 850hPa ] - [ Temp. 500hPa ] - [ Pression ] - [ Précip. ] - [ Temp. 2m ] - [ Z500 ] - [ CAPE ] -
[ Vent+Direction 10m ] - [ Vent 10m ] - [ Vent Rafales 10m ] - [ Vent+Direction 850hPa ] - [ Vent 850hPa ] - [ Iso 0 ] -
Tri des valeurs : [ Par scénario ] - [ Ascendant ] - [ Descendant ]

Localisation : 42.7N 23.3E

DateEch.
2019-03-24 06Z0-19.8-19.8-19.6-19.6-19.6-19.6-19.6-19.6-19.6-19.6-19.6-19.6-19.5-19.5-19.5-19.5-19.5-19.5-19.3-19.3-19.3-19.3
2019-03-24 09Z3-19.5-19.3-19.3-19.3-19.3-19.3-19.3-19.2-19.1-19.1-19.1-19.1-19.1-19.1-19.1-19.1-19.1-19.1-19.1-19.1-19.1-19
2019-03-24 12Z6-19.1-19.1-19.1-19.1-19.1-19.1-19.1-19.1-19.1-19-19-19-19-19-19-19-19-19-18.8-18.8-18.8-18.8
2019-03-24 15Z9-19.3-19.3-19.1-19.1-19.1-19.1-19.1-19.1-19.1-19.1-19.1-19.1-19.1-19.1-19.1-19.1-19-19-19-19-18.8-18.8
2019-03-24 18Z12-19.3-19.3-19.3-19.3-19.1-19.1-19.1-19.1-19.1-19.1-19.1-19.1-19.1-19.1-19.1-19.1-19.1-19.1-19.1-19.1-19.1-19
2019-03-24 21Z15-19.5-19.5-19.5-19.3-19.3-19.3-19.3-19.3-19.3-19.3-19.3-19.3-19.3-19.3-19.3-19.3-19.3-19.3-19.3-19.3-19.1-19.1
2019-03-25 00Z18-19.8-19.8-19.8-19.8-19.8-19.8-19.6-19.6-19.6-19.6-19.6-19.6-19.6-19.6-19.6-19.6-19.6-19.6-19.6-19.6-19.6-19.6
2019-03-25 03Z21-20.1-20.1-20.1-20.1-20.1-20.1-20-20-20-20-20-20-20-19.8-19.8-19.8-19.8-19.8-19.8-19.8-19.8-19.8
2019-03-25 06Z24-20.1-20-20-20-20-20-20-19.9-19.8-19.8-19.8-19.8-19.8-19.8-19.8-19.8-19.8-19.8-19.8-19.8-19.8-19.8
2019-03-25 09Z27-20.1-19.8-19.8-19.8-19.8-19.8-19.8-19.8-19.8-19.8-19.8-19.8-19.8-19.8-19.8-19.8-19.8-19.8-19.7-19.6-19.6-19.6
2019-03-25 12Z30-20.1-20.1-20-20-20-20-20-20-20-19.9-19.8-19.8-19.8-19.8-19.8-19.8-19.8-19.8-19.8-19.8-19.8-19.6
2019-03-25 15Z33-20.5-20.3-20.3-20.3-20.3-20.3-20.3-20.3-20.3-20.3-20.3-20.1-20.1-20.1-20.1-20.1-20.1-20.1-20.1-20.1-20.1-19.8
2019-03-25 18Z36-21.1-20.8-20.8-20.8-20.8-20.8-20.8-20.8-20.8-20.8-20.8-20.6-20.6-20.6-20.6-20.6-20.6-20.5-20.5-20.5-20.5-20.5
2019-03-25 21Z39-21.6-21.3-21.1-21.1-21.1-21.1-21.1-21.1-21.1-21.1-21.1-21.1-21.1-21.1-21.1-21-21-21-21-21-20.8-20.8
2019-03-26 00Z42-22.8-22.3-22.3-22.3-22.3-22.3-22.3-22.3-22.3-22.1-22.1-22.1-22.1-22.1-22.1-22.1-22-22-22-21.8-21.8-21.8
2019-03-26 03Z45-23.3-22.8-22.8-22.8-22.8-22.8-22.8-22.6-22.6-22.6-22.6-22.5-22.5-22.5-22.3-22.3-22.1-22.1-22.1-22-22-22
2019-03-26 06Z48-24.1-23.5-23.3-23.3-23.3-23.3-23.3-23.3-23.3-23.1-23.1-23.1-23.1-23-22.8-22.8-22.8-22.8-22.6-22.6-22.3-22.3
2019-03-26 09Z51-25-24.5-24.3-24.3-24.3-24.3-24.3-24.3-24.3-24.1-24.1-24.1-24.1-24.1-24-24-23.8-23.8-23.6-23.3-23.3-23.3
2019-03-26 12Z54-25-24.8-24.8-24.8-24.6-24.6-24.6-24.6-24.5-24.5-24.5-24.5-24.5-24.5-24.3-24.3-24.3-24.3-24.1-24.1-24.1-24
2019-03-26 15Z57-24.8-24.6-24.5-24.3-24.3-24.3-24.3-24.3-24.3-24.3-24.3-24.3-24.1-24.1-24.1-24-24-24-24-23.8-23.8-23.6
2019-03-26 18Z60-25.1-24.6-24.6-24.6-24.6-24.5-24.5-24.5-24.5-24.5-24.3-24.3-24.3-24.3-24.3-24.1-24.1-24.1-24.1-23.8-23.8-23.8
2019-03-26 21Z63-25.3-25.1-25.1-25-25-24.8-24.8-24.8-24.8-24.7-24.6-24.6-24.6-24.6-24.6-24.6-24.6-24.6-24.6-24.4-24.3-24.1
2019-03-27 00Z66-25.5-25.5-25.5-25.3-25.1-25.1-25.1-25.1-25.1-25.1-25-25-25-25-25-24.8-24.8-24.8-24.8-24.7-24.6-24.6
2019-03-27 03Z69-25.6-25.6-25.6-25.5-25.5-25.3-25.3-25.3-25.3-25.3-25.3-25.3-25.3-25.3-25.1-25.1-25.1-25.1-25-24.9-24.8-24.8
2019-03-27 06Z72-25.8-25.8-25.8-25.6-25.6-25.6-25.6-25.6-25.6-25.6-25.6-25.5-25.5-25.5-25.3-25.3-25.3-25.3-25.2-25.1-25.1-25
2019-03-27 09Z75-25.8-25.8-25.8-25.6-25.6-25.6-25.6-25.6-25.6-25.6-25.6-25.6-25.5-25.5-25.3-25.3-25.3-25.3-25.2-25.1-24.8-24.8
2019-03-27 12Z78-25.8-25.8-25.8-25.6-25.6-25.6-25.6-25.6-25.6-25.5-25.5-25.5-25.5-25.3-25.3-25.3-25.3-25.2-25.1-25.1-25-24.8
2019-03-27 15Z81-25.8-25.8-25.8-25.6-25.6-25.6-25.6-25.6-25.6-25.5-25.3-25.3-25.3-25.3-25.3-25.3-25.3-25.2-25.1-25.1-25-24.6
2019-03-27 18Z84-26.1-26.1-26.1-26.1-25.8-25.8-25.8-25.8-25.8-25.8-25.8-25.6-25.6-25.6-25.6-25.6-25.6-25.6-25.6-25.2-25.1-24.3
2019-03-27 21Z87-26.8-26.3-26.3-26.3-26.3-26.3-26.3-26.3-26.3-26.3-26.1-26.1-26.1-26.1-26-26-25.8-25.8-25.7-25.6-25-24.5
2019-03-28 00Z90-26.8-26.8-26.6-26.6-26.6-26.6-26.5-26.5-26.5-26.1-26.1-26-26-26-26-25.8-25.6-25.6-25.6-25.3-25.3-24.8
2019-03-28 03Z93-27.1-27-26.6-26.6-26.5-26.3-26.3-26.1-26.1-26-26-26-26-26-25.8-25.8-25.8-25.8-25.6-25.6-25-24.6
2019-03-28 06Z96-27.5-27.1-27-26.5-26.4-26.3-26.3-26.3-26.3-26.1-26.1-26.1-26-26-26-26-26-25.8-25.5-25.1-24.8-24.3
2019-03-28 09Z99-27.6-27.1-27-26.8-26.6-26.6-26.6-26.5-26.5-26.5-26.4-26.3-26.3-26.3-26.1-26-25.8-25.8-25.6-25.5-25.3-24.3
2019-03-28 12Z102-27.3-27.1-27.1-27-27-26.8-26.6-26.6-26.6-26.5-26.5-26.3-26.3-26.3-26.1-26.1-26-25.8-25.6-25.6-25.5-24.5
2019-03-28 15Z105-27.5-27.4-27.3-27.3-27.1-26.8-26.6-26.6-26.6-26.5-26.3-26.3-26.3-26.3-26.3-25.8-25.8-25.6-25.6-25.5-25.3-25
2019-03-28 18Z108-27.8-27.8-27.5-27.3-27.1-27.1-27-27-26.8-26.8-26.6-26.3-26.3-26.1-26.1-26.1-26.1-26-25.8-25.6-25.3-25
2019-03-28 21Z111-28.1-27.6-27.4-27.3-27.3-27.3-27.3-27.2-26.8-26.8-26.6-26.6-26.5-26.5-26.3-26.3-26.3-26-26-25.8-25.8-25.1
2019-03-29 00Z114-28.1-27.8-27.8-27.6-27.6-27.4-27.3-27.1-27-26.8-26.8-26.8-26.6-26.6-26.5-26.5-26.1-26.1-26-25.8-25.8-25.6
2019-03-29 03Z117-28.3-28.1-27.6-27.5-27.5-27.3-27.1-27.1-26.8-26.8-26.6-26.6-26.3-26.3-26.3-26.1-26.1-26.1-26-25.6-25.6-25.3
2019-03-29 06Z120-28.1-27.8-27.5-27.5-27.3-27.1-27.1-27-26.6-26.6-26.6-26.6-26.6-26.3-26.1-26.1-25.8-25.8-25.5-25.5-25.1-25
2019-03-29 09Z123-28.1-27.6-27.3-27.3-27.1-27.1-26.8-26.8-26.6-26.5-26.3-26.3-26.3-26.1-26.1-26.1-25.8-25.8-25.8-25.5-24.6-24.3
2019-03-29 12Z126-28.1-27.6-27.5-27.3-27.3-27-26.8-26.8-26.6-26.5-26.5-26.3-26.3-26.3-26-25.8-25.6-25.6-25.3-25.1-24.3-23.6
2019-03-29 15Z129-28-27.6-27.3-27.3-27.3-27.1-27.1-26.8-26.5-26.5-26.1-26.1-26.1-25.8-25.8-25.6-25.6-24.8-24.6-24.3-23.6-23.1
2019-03-29 18Z132-28.3-27.5-27.3-27.1-27.1-27-26.6-26.3-26.1-26.1-26.1-25.8-25.7-25.5-25.3-25-24.8-24.6-24.1-23.7-23.6-22.8
2019-03-29 21Z135-28.8-27.3-27.1-27-26.8-26.3-26.3-26.3-26.3-25.8-25.8-25.6-25.6-25.1-24.6-24.6-24.3-23.5-23.1-23.1-22.5-22.3
2019-03-30 00Z138-29.3-27.1-27-26.6-26.6-26.5-26.3-26-26-25.6-25.6-25.5-25.3-24.5-24.3-24.1-23.3-23.1-22.8-22.3-22.1-21.6
2019-03-30 03Z141-29.1-27.3-26.6-26.6-26.6-26.6-26.3-25.8-25.6-25.5-25.3-25.1-24.8-24.6-24.6-24.3-23.6-23.3-23-22.5-21.6-21.3
2019-03-30 06Z144-28.8-27.1-26.8-26.8-26.6-26.3-26-25.8-25.1-25.1-25.1-25-24.8-24.6-24.6-24.5-24-23.1-23.1-22.3-21.5-21.1
2019-03-30 09Z147-28.8-27.6-26.8-26.3-25.8-25.6-25.6-25.1-25.1-25.1-24.7-24.6-24.5-24.5-24.1-23.6-23.6-23.3-23-22.1-21.6-21.1
2019-03-30 12Z150-28.6-27.1-26.5-26.1-25.5-25.3-25.1-24.8-24.6-24.6-24.4-24.1-24.1-23.8-23.8-23.8-23.3-23.1-22.3-22.1-22.1-21
2019-03-30 15Z153-28.1-26.3-26-26-25.5-25.5-25-24.6-24.3-24.3-24.1-24.1-24.1-23.8-23.6-23.3-23.3-23-22.5-22.1-21.8-19.6
2019-03-30 18Z156-28.1-27-25.8-25.8-25.3-25.3-25.1-24.3-24.1-24.1-24.1-24-24-23.8-23.8-23.1-22.8-22.8-22.3-22-21.5-19.1
2019-03-30 21Z159-27.8-26.8-25.5-25.3-25.1-25-24.6-24.5-24.3-24.1-24.1-24-24-23.8-23.5-23-22.8-22.3-22.1-22-21.8-19.1
2019-03-31 00Z162-27.3-26.5-25.8-25.1-24.8-24.8-24.5-24.3-24.1-24.1-24.1-24.1-23.8-23.8-23.6-23.3-22.1-22.1-22.1-22.1-21.8-19
2019-03-31 03Z165-27.1-27-26.1-24.8-24.8-24.8-24.6-24.6-24.1-24.1-24.1-24-24-23.8-23.3-23.3-22.3-22.1-21.9-21.8-21.5-19.1
2019-03-31 06Z168-27.1-26.8-25.1-25.1-25.1-24.6-24.6-24.3-24.3-24.1-24.1-23.8-23.6-23.5-23.3-23.1-22.6-22.1-21.8-21.6-21-19.1
2019-03-31 09Z171-26.1-25.8-25.3-25.1-24.8-24.3-24.3-24.1-24.1-24.1-23.8-23.8-23.6-23.6-23.1-22.3-21.8-21.6-21.3-21.1-20.6-19.3
2019-03-31 12Z174-26.1-25.6-25.5-25.1-24.6-24.3-24.1-23.8-23.8-23.8-23.6-23.5-23.5-23.1-22.8-21.7-21.6-21.1-21.1-21-20.5-19.5
2019-03-31 15Z177-26.3-25.6-25.3-25.3-24.3-24.1-24.1-24-23.8-23.3-23.3-23.1-23.1-23-22.6-21.5-21.5-21.3-21.3-20.5-20.3-19.3
2019-03-31 18Z180-26.6-25.8-25.6-24.6-24.5-24.3-24.1-24-23.3-23.1-23.1-23.1-23.1-22.8-21.6-21.6-21.5-21.1-20.8-20.3-20.1-19.1
2019-03-31 21Z183-27.8-26.1-25.6-24.6-24.3-24.1-23.8-23.8-23.6-23.3-23.3-23.1-22.6-22.6-21.8-21.6-21.1-21-20.8-20.1-19.6-19
2019-04-01 00Z186-26.6-26.1-25.8-24.8-24.5-24.1-24-24-23.6-23.6-23.3-23.3-22.8-22.6-22.1-21.8-20.8-20.5-20.5-20.1-19.8-19
2019-04-01 03Z189-26.6-25.6-25.1-25-24.8-24.8-24.3-24.1-24-23.8-23.5-23.5-23.4-22.5-22.3-22.1-20.6-20.1-20-20-19.8-18.8
2019-04-01 06Z192-27-25.6-25.3-25.3-25.3-24.8-24.6-24.1-24.1-23.8-23.8-23.6-23.3-22.7-22.3-22.3-20.8-20.5-20.1-20-19.8-19.1
2019-04-01 12Z198-26.8-26.5-25.1-25.1-25-24.8-24.2-23.8-23.8-23.6-23.5-23.5-23.3-23.1-22.3-21.8-21.5-21.3-20.5-19.8-19.6-18.8
2019-04-01 18Z204-28.1-27.1-26.6-26.3-26-25.5-25-23.8-23.7-23.6-23.3-23.1-22.8-22.6-22.5-22.1-21.6-21.3-20.8-20.1-19.8-18
2019-04-02 00Z210-30.3-28.1-27.6-26.4-26.3-26.1-25.5-24.6-24.1-24.1-24.1-23-22.8-22.6-22.6-22.1-21.6-21.3-21.1-21-19.8-17.6
2019-04-02 06Z216-31.3-27.8-27.5-26.3-26.1-25.9-25.1-24.3-24.1-24-23.8-23.6-23.3-23.1-23.1-22.8-21.6-21.3-20.6-20.1-19.8-19
2019-04-02 12Z222-30.8-27.5-27.3-26.3-26-25.5-25.3-24.8-24.7-24-23.5-23.3-23.3-21.8-21.8-21.5-21.3-20.3-20.1-19.8-19.1-18.8
2019-04-02 18Z228-29.8-27.6-27.3-27.1-25.3-25-24.8-24.8-24.6-23.8-22.5-22.5-22.1-21.3-21.3-21.1-20.6-20.1-20-19.8-19.8-17.8
2019-04-03 00Z234-32.5-28.8-26.5-26.3-25.6-25.3-25.3-24.3-24.1-23.8-23.5-22-21.8-21.8-21.1-21.1-21.1-21-21-20.6-19.3-17.6
2019-04-03 06Z240-35.8-27.8-26.3-26.1-26-25.8-24.8-24.6-24.3-24.1-24-23.8-22.1-21.8-21.6-21.6-20.8-20.6-20.4-20.3-17.8-17.8
2019-04-03 12Z246-36.3-26.3-26.1-25.6-25.1-25-24.6-24.3-24.1-23.5-22.8-22.5-22.1-21.3-21.3-20.6-20.6-20.1-19.8-18.3-17.3
2019-04-03 18Z252-35.5-28.8-26.3-25.8-25.1-24.1-24-23.6-23.3-23-22-21.8-21.6-20.5-20.1-20-19.8-19.6-19.5-19.4-19.1-18
2019-04-04 00Z258-34.8-28.1-26.3-25.8-24.3-23.6-23.3-23.1-22.8-22.6-22.3-22.3-21.8-20.8-20.3-20.3-19.8-19.8-18.6-18.3-18.1
2019-04-04 06Z264-32.1-27.6-27.3-26.5-23.8-23.6-23.5-23.1-23.1-22.8-22.3-21.8-21.6-21.3-20.6-20.5-20.3-20.3-19.8-19.4-18.6-17.6
2019-04-04 12Z270-31.6-27.1-26.3-24.6-24.6-23.3-23.3-23.1-23.1-22.8-22.6-22.3-22.1-21.6-21.3-20.3-20.1-19.5-19.3-19.1-17.1
2019-04-04 18Z276-30.1-26.6-26.1-25.1-24-23.8-23.1-23-22.8-22.6-21.8-21.8-21.8-21.5-21.3-20.6-19.8-19.6-19.3-18.1-17.3-16.7
2019-04-05 00Z282-29.1-26.6-26-25.1-24.6-24.3-24.1-24.1-23.5-22.8-22.6-22-21.6-21.5-21.3-21-20.3-19.3-17.6-17.1-17.1
2019-04-05 06Z288-28.1-27.5-27.5-26.8-25.8-25.3-25-24.1-23.8-23.3-23.1-23.1-22-22-21.5-21.1-20.6-20.3-19.6-17.6-16.7-15.6
2019-04-05 12Z294-34.6-28.3-28.3-26.6-25.8-25.3-24.8-24.1-24-23.1-22.8-22.8-22.5-21.3-20.6-20.1-19.8-19.3-17-17-16.2
2019-04-05 18Z300-36-28.1-28-26.1-25.8-25.8-25-24.8-24.6-24.6-23.5-23.3-21.3-21.1-21-19.5-18.8-18.8-18.1-17.6-17.3-17.3
2019-04-06 00Z306-36.1-27.6-26.3-25.8-25.8-25.6-25.1-25.1-24.6-24.3-23.6-22-21.1-21.1-21.1-18.8-18.6-18.5-17.8-17.6-17.1
2019-04-06 06Z312-36.1-27.3-27.1-27-25.1-24.5-24.5-24.1-23.3-22.3-22.1-21.8-21.1-21.1-21.1-19.8-19.8-18.8-18.8-18.8-17.6-16.8
2019-04-06 12Z318-35.1-30.1-26.8-26.6-24.1-23.3-23.1-22.3-21.6-21.6-20.8-20.6-20.6-20.1-19.8-19.1-18.8-18.3-18.1-17.3-16.3
2019-04-06 18Z324-34.6-32.8-26.6-24.8-24.1-23.6-22.6-22.6-22.5-22.1-21.6-21.6-20.8-20.1-19.8-18.8-18.3-18.1-17.4-17-16.3-16.2
2019-04-07 00Z330-34.1-29.5-26.8-24.6-24.1-24-22.5-22.3-22.1-22.1-21.8-21.3-20.8-19.8-19.6-19.3-18.6-18.3-17.1-16.5-16.2
2019-04-07 06Z336-32.6-27.6-25.6-25.3-24.6-23.1-23.1-22.5-22.1-21.8-21.1-21-20.6-20.1-20-19.1-18-17.8-17.7-17.6-16.5-16.2
2019-04-07 12Z342-32-27.1-25-25-24.3-23.5-23.1-22.8-21.5-21.3-21.1-20.5-20.1-19.8-19.3-17.8-17.5-17.3-16.6-16.5-16.2
2019-04-07 18Z348-29.6-27-24.8-24.8-24.5-24.1-23-22.1-22-21.3-21.1-20.5-19.5-19.3-18.3-18-17-16.7-16.6-16-15.9-15.7
2019-04-08 00Z354-27-25.3-24.6-24.6-24.1-23.8-22.8-22.5-22.1-21.8-21.6-19.8-19.6-19.5-19.1-18.5-18-17.1-16.7-16.6-16.3
2019-04-08 06Z360-27.3-27.3-25.6-25.1-24.5-23.6-22.3-22.3-22.1-22-21.6-21-20.3-19.8-19.5-18.3-18.3-17.8-16.6-16.2-15.8-14.4
2019-04-08 12Z366-27.6-26.3-26.1-25.3-24.3-22.8-21.8-21.6-21.6-21.3-21.1-20.8-20.6-19.6-19.6-19.3-17.6-17.3-16.7-15.8-15.5
2019-04-08 18Z372-27.1-26.3-25.8-25.6-23.8-23-22.6-21.5-21.3-21.1-20.8-20.8-19.8-19.6-19-18.8-17.3-17.3-16.8-16.2-15.1-14.9
2019-04-09 00Z378-25.6-25.6-25.6-25.5-23.8-22.8-22.3-22.3-21.5-21.3-21.3-21.1-19.6-19.3-18.8-18.3-17.6-17.6-17.3-15.8-14.7
2019-04-09 06Z384-26.1-25.6-24.3-23.8-23.8-23.5-22.3-21.6-21.6-21.3-21.3-20.8-20.1-19.3-18.6-18.1-17.6-17.6-17.5-17.3-16.1-14.7

Retour à la carte

meteociel.fr™ | © 2004 - 2019 | Forums Météo | Prévi Paris | Liens météo | Média - Meteociel | Mentions légales | Contact
En poursuivant votre navigation sur Meteociel, vous acceptez l'utilisation des cookies. Ils assurent le bon fonctionnement de nos services. [ En savoir plus ] [ OK ]